createdAt,value
2023-05-10T00:00:41.863Z,2.63
2023-05-10T00:03:10.009Z,2.17
2023-05-10T00:05:38.018Z,1.58
2023-05-10T00:08:06.374Z,2.00
2023-05-10T00:10:34.503Z,3.00
2023-05-10T00:13:04.638Z,2.47
2023-05-10T00:15:32.961Z,1.75
2023-05-10T00:18:01.087Z,1.98
2023-05-10T00:20:29.248Z,1.67
2023-05-10T00:22:57.281Z,1.63
2023-05-10T00:25:25.692Z,2.38
2023-05-10T00:27:56.462Z,3.70
2023-05-10T00:30:28.280Z,2.63
2023-05-10T00:32:56.981Z,2.53
2023-05-10T00:35:25.314Z,3.22
2023-05-10T00:37:53.485Z,2.33
2023-05-10T00:40:22.496Z,3.15
2023-05-10T00:42:55.731Z,1.90
2023-05-10T00:45:24.659Z,3.28
2023-05-10T00:47:56.471Z,2.42
2023-05-10T00:50:27.186Z,2.25
2023-05-10T00:52:55.354Z,1.45
2023-05-10T00:55:24.879Z,2.33
2023-05-10T00:57:54.593Z,1.92
2023-05-10T01:00:22.915Z,2.55
2023-05-10T01:02:51.725Z,1.50
2023-05-10T01:05:20.854Z,1.75
2023-05-10T01:07:51.476Z,2.65
2023-05-10T01:10:19.951Z,2.05
2023-05-10T01:12:49.053Z,2.33
2023-05-10T01:15:19.336Z,2.25
2023-05-10T01:17:50.978Z,4.05
2023-05-10T01:20:21.429Z,2.75
2023-05-10T01:23:05.895Z,3.15
2023-05-10T01:25:52.249Z,2.40
2023-05-10T01:28:23.710Z,2.75
2023-05-10T01:31:17.943Z,2.00
2023-05-10T01:33:53.933Z,2.03
2023-05-10T01:36:28.329Z,2.45
2023-05-10T01:39:07.737Z,3.28
2023-05-10T01:41:47.301Z,3.28
2023-05-10T01:44:25.032Z,3.42
2023-05-10T01:47:24.958Z,2.28
2023-05-10T01:49:56.978Z,2.83
2023-05-10T01:52:35.127Z,3.33
2023-05-10T01:55:07.742Z,1.90
2023-05-10T01:57:40.924Z,3.15
2023-05-10T02:00:10.957Z,2.50
2023-05-10T02:02:52.353Z,2.37
2023-05-10T02:05:22.079Z,2.22
2023-05-10T02:07:51.780Z,2.65
2023-05-10T02:10:21.169Z,3.47
2023-05-10T02:12:51.386Z,1.92
2023-05-10T02:15:24.235Z,2.08
2023-05-10T02:17:55.957Z,2.17
2023-05-10T02:20:26.339Z,2.28
2023-05-10T02:23:02.448Z,2.40
2023-05-10T02:25:33.101Z,2.45
2023-05-10T02:28:03.931Z,4.47
2023-05-10T02:30:34.733Z,1.77
2023-05-10T02:33:07.347Z,3.40
2023-05-10T02:35:36.847Z,2.58
2023-05-10T02:38:06.560Z,2.25
2023-05-10T02:40:36.097Z,1.92
2023-05-10T02:43:07.419Z,2.17
2023-05-10T02:45:40.281Z,2.65
2023-05-10T02:48:09.199Z,3.35
2023-05-10T02:50:41.066Z,3.53
2023-05-10T02:53:17.111Z,2.85
2023-05-10T02:55:50.885Z,2.37
2023-05-10T02:58:20.977Z,1.70
2023-05-10T03:00:49.592Z,1.83
2023-05-10T03:03:18.428Z,4.47
2023-05-10T03:05:46.741Z,1.95
2023-05-10T03:08:14.975Z,3.13
2023-05-10T03:11:04.999Z,2.75
2023-05-10T03:13:50.726Z,4.57
2023-05-10T03:16:26.900Z,2.45
2023-05-10T03:19:16.791Z,3.63
2023-05-10T03:21:51.681Z,3.30
2023-05-10T03:24:26.563Z,4.15
2023-05-10T03:26:58.418Z,4.85
2023-05-10T03:29:28.688Z,4.07
2023-05-10T03:31:57.069Z,5.32
2023-05-10T03:34:28.812Z,5.10
2023-05-10T03:36:58.443Z,3.45
2023-05-10T03:39:28.426Z,5.90
2023-05-10T03:41:59.637Z,2.78
2023-05-10T03:44:29.666Z,4.70
2023-05-10T03:46:58.252Z,3.30
2023-05-10T03:49:26.473Z,3.45
2023-05-10T03:51:54.695Z,3.03
2023-05-10T03:54:23.029Z,3.05
2023-05-10T03:56:54.245Z,2.90
2023-05-10T03:59:23.599Z,6.03
2023-05-10T04:01:54.045Z,2.42
2023-05-10T04:04:24.445Z,6.30
2023-05-10T04:06:52.460Z,1.63
2023-05-10T04:09:25.160Z,3.28
2023-05-10T04:11:54.901Z,2.70
2023-05-10T04:14:23.097Z,2.75
2023-05-10T04:16:51.596Z,2.55
2023-05-10T04:19:19.797Z,2.90
2023-05-10T04:21:47.944Z,1.33
2023-05-10T04:24:16.158Z,2.80
2023-05-10T04:26:44.320Z,3.25
2023-05-10T04:29:12.558Z,2.22
2023-05-10T04:31:43.805Z,1.77
2023-05-10T04:34:12.237Z,3.50
2023-05-10T04:36:40.372Z,10.35
2023-05-10T04:39:08.470Z,10.30
2023-05-10T04:41:36.505Z,7.05
2023-05-10T04:44:07.683Z,5.45
2023-05-10T04:46:35.952Z,4.22
2023-05-10T04:49:03.835Z,2.47
2023-05-10T04:51:32.747Z,3.42
2023-05-10T04:54:06.544Z,2.22
2023-05-10T04:56:34.916Z,3.97
2023-05-10T04:59:02.784Z,4.18
2023-05-10T05:01:30.790Z,6.20
2023-05-10T05:04:00.829Z,5.13
2023-05-10T05:06:28.834Z,5.68
2023-05-10T05:08:56.765Z,4.55
2023-05-10T05:11:24.732Z,4.20
2023-05-10T05:13:52.800Z,5.15
2023-05-10T05:16:21.240Z,4.70
2023-05-10T05:18:49.867Z,2.53
2023-05-10T05:21:19.334Z,2.75
2023-05-10T05:23:47.713Z,6.45
2023-05-10T05:26:16.226Z,5.18
2023-05-10T05:28:44.483Z,3.22
2023-05-10T05:31:12.747Z,2.67
2023-05-10T05:33:41.200Z,3.78
2023-05-10T05:36:09.642Z,3.35
2023-05-10T05:38:37.893Z,2.67
2023-05-10T05:41:07.133Z,6.40
2023-05-10T05:43:38.052Z,2.92
2023-05-10T05:46:06.482Z,2.22
2023-05-10T05:48:34.588Z,3.00
2023-05-10T05:51:02.991Z,2.72
2023-05-10T05:53:31.813Z,3.25
2023-05-10T05:56:00.459Z,3.72
2023-05-10T05:58:28.473Z,3.53
2023-05-10T06:00:56.251Z,2.40
2023-05-10T06:03:24.232Z,3.78
2023-05-10T06:05:52.168Z,5.72
2023-05-10T06:08:20.291Z,5.63
2023-05-10T06:10:48.299Z,2.97
2023-05-10T06:13:17.827Z,3.95
2023-05-10T06:15:45.847Z,2.95
2023-05-10T06:18:13.793Z,2.83
2023-05-10T06:20:44.034Z,1.85
2023-05-10T06:23:13.012Z,4.90
2023-05-10T06:25:41.552Z,4.88
2023-05-10T06:28:09.679Z,2.55
2023-05-10T06:30:38.119Z,4.07
2023-05-10T06:33:07.270Z,2.90
2023-05-10T06:35:35.442Z,2.63
2023-05-10T06:38:04.386Z,5.50
2023-05-10T06:40:32.392Z,3.25
2023-05-10T06:43:00.515Z,4.03
2023-05-10T06:45:28.735Z,5.47
2023-05-10T06:47:56.546Z,6.35
2023-05-10T06:50:24.415Z,12.43
2023-05-10T06:52:53.144Z,8.05
2023-05-10T06:55:21.415Z,12.73
2023-05-10T06:57:49.177Z,14.70
2023-05-10T07:00:17.967Z,16.70
2023-05-10T07:02:46.512Z,16.45
2023-05-10T07:05:15.574Z,16.23
2023-05-10T07:07:43.695Z,15.10
2023-05-10T07:10:11.758Z,13.57
2023-05-10T07:12:39.701Z,17.10
2023-05-10T07:15:15.089Z,23.63
2023-05-10T07:17:44.135Z,20.33
2023-05-10T07:20:13.983Z,19.10
2023-05-10T07:22:41.856Z,29.48
2023-05-10T07:25:09.632Z,24.85
2023-05-10T07:27:37.853Z,27.52
2023-05-10T07:30:06.356Z,12.52
2023-05-10T07:32:34.362Z,15.40
2023-05-10T07:35:02.373Z,14.98
2023-05-10T07:37:30.490Z,13.18
2023-05-10T07:39:58.549Z,13.82
2023-05-10T07:42:27.293Z,8.30
2023-05-10T07:44:55.352Z,22.83
2023-05-10T07:47:23.342Z,17.67
2023-05-10T07:49:51.229Z,14.73
2023-05-10T07:52:21.224Z,13.77
2023-05-10T07:54:50.239Z,12.27
2023-05-10T07:57:19.391Z,15.65
2023-05-10T07:59:47.985Z,9.20
2023-05-10T08:02:15.887Z,6.25
2023-05-10T08:04:43.917Z,11.85
2023-05-10T08:07:12.506Z,5.72
2023-05-10T08:09:40.640Z,10.75
2023-05-10T08:12:08.558Z,14.60
2023-05-10T08:14:38.108Z,18.75
2023-05-10T08:17:06.178Z,51.80
2023-05-10T08:19:34.172Z,88.72
2023-05-10T08:22:02.086Z,169.00
2023-05-10T08:24:30.017Z,177.63
2023-05-10T08:26:58.666Z,128.70
2023-05-10T08:29:28.415Z,157.38
2023-05-10T08:31:58.549Z,126.78
2023-05-10T08:34:26.476Z,85.45
2023-05-10T08:36:54.716Z,54.88
2023-05-10T08:39:29.814Z,44.70
2023-05-10T08:42:03.388Z,25.40
2023-05-10T08:44:33.989Z,28.77
2023-05-10T08:47:05.979Z,15.85
2023-05-10T08:49:35.062Z,10.15
2023-05-10T08:52:06.630Z,10.43
2023-05-10T08:54:35.158Z,13.95
2023-05-10T08:57:03.188Z,8.38
2023-05-10T08:59:31.941Z,9.23
2023-05-10T09:02:01.317Z,8.15
2023-05-10T09:04:30.820Z,7.68
2023-05-10T09:06:59.148Z,13.05
2023-05-10T09:09:28.616Z,12.02
2023-05-10T09:11:57.156Z,10.48
2023-05-10T09:14:26.597Z,11.55
2023-05-10T09:16:56.615Z,9.45
2023-05-10T09:19:24.844Z,9.25
2023-05-10T09:21:53.010Z,6.75
2023-05-10T09:24:21.129Z,4.90
2023-05-10T09:26:50.097Z,7.65
2023-05-10T09:29:18.409Z,5.07
2023-05-10T09:31:55.901Z,7.68
2023-05-10T09:34:33.780Z,7.80
2023-05-10T09:37:04.052Z,5.72
2023-05-10T09:39:36.476Z,7.30
2023-05-10T09:42:12.338Z,8.85
2023-05-10T09:44:42.315Z,12.10
2023-05-10T09:47:10.580Z,9.73
2023-05-10T09:49:39.160Z,11.55
2023-05-10T09:52:09.200Z,12.93
2023-05-10T09:54:37.665Z,16.95
2023-05-10T09:57:08.256Z,14.80
2023-05-10T09:59:37.518Z,12.23
2023-05-10T10:02:05.933Z,13.80
2023-05-10T10:04:40.259Z,14.32
2023-05-10T10:07:08.161Z,43.90
2023-05-10T10:09:36.539Z,21.75
2023-05-10T10:12:06.239Z,15.48
2023-05-10T10:14:35.836Z,12.88
2023-05-10T10:17:08.210Z,15.18
2023-05-10T10:19:38.198Z,14.45
2023-05-10T10:22:07.645Z,12.80
2023-05-10T10:24:38.243Z,18.38
2023-05-10T10:27:14.123Z,17.88
2023-05-10T10:29:57.696Z,23.60
2023-05-10T10:32:52.473Z,32.08
2023-05-10T10:35:22.509Z,48.72
2023-05-10T10:37:52.812Z,62.47
2023-05-10T10:44:51.029Z,23.08
2023-05-10T10:51:16.869Z,23.10
2023-05-10T10:54:14.507Z,25.77
2023-05-10T10:57:34.384Z,25.90
2023-05-10T11:08:04.652Z,18.17
2023-05-10T11:13:51.491Z,9.90
2023-05-10T11:16:23.391Z,10.30
2023-05-10T11:22:15.424Z,8.93
2023-05-10T11:24:59.030Z,9.35
2023-05-10T11:27:27.854Z,10.70
2023-05-10T11:29:56.364Z,11.20
2023-05-10T11:32:24.915Z,11.82
2023-05-10T11:34:52.971Z,11.68
2023-05-10T11:37:21.312Z,9.25
2023-05-10T11:39:51.052Z,10.40
2023-05-10T11:42:19.152Z,10.20
2023-05-10T11:44:48.591Z,14.27
2023-05-10T11:47:17.113Z,11.27
2023-05-10T11:49:46.470Z,17.77
2023-05-10T11:52:14.846Z,10.98
2023-05-10T11:54:56.557Z,11.93
2023-05-10T11:57:28.309Z,8.27
2023-05-10T11:59:59.509Z,8.75
2023-05-10T12:02:29.115Z,11.05
2023-05-10T12:04:58.242Z,9.35
2023-05-10T12:07:28.215Z,9.63
2023-05-10T12:10:10.928Z,9.38
2023-05-10T12:12:39.262Z,6.72
2023-05-10T12:15:11.957Z,5.90
2023-05-10T12:17:43.466Z,7.93
2023-05-10T12:20:23.157Z,8.73
2023-05-10T12:23:00.651Z,7.18
2023-05-10T12:25:36.797Z,7.22
2023-05-10T12:33:22.891Z,6.63
2023-05-10T12:35:53.287Z,8.02
2023-05-10T12:38:44.946Z,13.95
2023-05-10T12:41:16.704Z,7.90
2023-05-10T12:43:45.905Z,7.70
2023-05-10T12:46:16.676Z,11.75
2023-05-10T12:48:46.871Z,12.43
2023-05-10T12:51:17.235Z,38.20
2023-05-10T12:53:56.583Z,31.48
2023-05-10T12:56:29.162Z,23.45
2023-05-10T12:58:57.344Z,22.90
2023-05-10T13:01:25.355Z,20.40
2023-05-10T13:03:53.495Z,11.65
2023-05-10T13:06:21.960Z,15.55
2023-05-10T13:08:50.524Z,11.38
2023-05-10T13:11:21.250Z,12.20
2023-05-10T13:13:49.604Z,20.88
2023-05-10T13:16:17.891Z,15.55
2023-05-10T13:18:46.147Z,13.25
2023-05-10T13:21:14.433Z,11.60
2023-05-10T13:23:42.569Z,12.32
2023-05-10T13:26:11.074Z,14.93
2023-05-10T13:28:40.391Z,12.20
2023-05-10T13:31:09.077Z,16.58
2023-05-10T13:33:37.416Z,17.15
2023-05-10T13:36:06.031Z,13.85
2023-05-10T13:38:34.291Z,14.13
2023-05-10T13:41:02.544Z,9.68
2023-05-10T13:43:31.180Z,11.85
2023-05-10T13:46:07.037Z,14.68
2023-05-10T13:48:41.081Z,7.47
2023-05-10T13:51:09.739Z,7.50
2023-05-10T13:53:42.638Z,11.25
2023-05-10T13:56:11.704Z,17.10
2023-05-10T13:58:39.998Z,25.00
2023-05-10T14:01:09.450Z,29.17
2023-05-10T14:03:37.426Z,24.20
2023-05-10T14:06:05.974Z,30.35
2023-05-10T14:08:33.943Z,23.08
2023-05-10T14:11:02.142Z,18.48
2023-05-10T14:13:30.343Z,35.85
2023-05-10T14:15:58.470Z,16.58
2023-05-10T14:18:27.727Z,12.60
2023-05-10T14:20:56.619Z,12.63
2023-05-10T14:23:28.078Z,12.93
2023-05-10T14:25:56.504Z,10.25
2023-05-10T14:28:25.165Z,10.88
2023-05-10T14:30:53.364Z,11.73
2023-05-10T14:33:22.383Z,8.82
2023-05-10T14:35:50.593Z,8.35
2023-05-10T14:38:18.694Z,11.68
2023-05-10T14:40:46.561Z,10.90
2023-05-10T14:43:14.677Z,8.40
2023-05-10T14:45:43.182Z,9.63
2023-05-10T14:48:13.643Z,10.32
2023-05-10T14:50:41.754Z,11.20
2023-05-10T14:53:09.672Z,15.07
2023-05-10T14:55:38.366Z,32.28
2023-05-10T14:58:06.660Z,26.95
2023-05-10T15:00:34.909Z,21.25
2023-05-10T15:03:06.292Z,17.70
2023-05-10T15:05:35.309Z,13.52
2023-05-10T15:08:04.260Z,10.48
2023-05-10T15:10:34.607Z,7.38
2023-05-10T15:13:03.765Z,12.63
2023-05-10T15:15:32.184Z,11.02
2023-05-10T15:18:00.376Z,12.60
2023-05-10T15:20:28.471Z,7.60
2023-05-10T15:22:56.548Z,9.63
2023-05-10T15:25:25.181Z,9.90
2023-05-10T15:27:53.247Z,9.77
2023-05-10T15:30:21.904Z,9.30
2023-05-10T15:32:50.305Z,8.45
2023-05-10T15:35:19.027Z,5.97
2023-05-10T15:37:49.862Z,8.70
2023-05-10T15:40:18.332Z,9.48
2023-05-10T15:42:46.959Z,7.63
2023-05-10T15:45:16.639Z,10.32
2023-05-10T15:47:46.357Z,9.80
2023-05-10T15:50:15.566Z,8.25
2023-05-10T15:52:43.604Z,7.90
2023-05-10T15:55:13.438Z,10.68
2023-05-10T15:57:43.459Z,6.40
2023-05-10T16:00:14.787Z,10.75
2023-05-10T16:02:43.443Z,10.02
2023-05-10T16:05:12.100Z,8.35
2023-05-10T16:07:42.160Z,8.05
2023-05-10T16:23:55.089Z,7.32
2023-05-10T16:26:23.158Z,7.97
2023-05-10T16:28:51.350Z,13.23
2023-05-10T16:31:20.771Z,16.98
2023-05-10T16:33:48.999Z,12.60
2023-05-10T16:36:16.950Z,9.57
2023-05-10T16:38:47.581Z,10.48
2023-05-10T16:41:15.368Z,16.30
2023-05-10T16:43:43.154Z,8.15
2023-05-10T16:46:14.620Z,8.93
2023-05-10T16:48:44.094Z,13.10
2023-05-10T16:51:12.519Z,13.00
2023-05-10T16:53:40.726Z,10.05
2023-05-10T16:56:08.620Z,8.40
2023-05-10T16:58:36.729Z,10.32
2023-05-10T17:01:05.349Z,8.60
2023-05-10T17:03:33.973Z,7.40
2023-05-10T17:06:01.945Z,12.18
2023-05-10T17:08:32.518Z,12.48
2023-05-10T17:11:04.528Z,9.40
2023-05-10T17:13:32.446Z,6.45
2023-05-10T17:16:04.997Z,10.85
2023-05-10T17:18:33.427Z,6.28
2023-05-10T17:21:01.893Z,8.02
2023-05-10T17:23:30.464Z,11.88
2023-05-10T17:26:00.254Z,14.38
2023-05-10T17:28:29.319Z,12.10
2023-05-10T17:30:58.292Z,11.50
2023-05-10T17:33:26.665Z,11.18
2023-05-10T17:35:55.921Z,10.88
2023-05-10T17:38:23.706Z,10.43
2023-05-10T17:40:57.249Z,10.63
2023-05-10T17:43:26.177Z,12.38
2023-05-10T17:45:54.199Z,9.95
2023-05-10T17:48:22.335Z,9.40
2023-05-10T17:50:51.545Z,8.55
2023-05-10T17:53:19.671Z,12.45
2023-05-10T17:55:47.603Z,8.95
2023-05-10T17:58:15.657Z,9.82
2023-05-10T18:00:43.577Z,17.13
2023-05-10T18:03:11.723Z,12.75
2023-05-10T18:05:39.775Z,14.50
2023-05-10T18:08:07.746Z,10.45
2023-05-10T18:10:38.175Z,12.50
2023-05-10T18:13:08.886Z,11.80
2023-05-10T18:15:37.423Z,11.55
2023-05-10T18:18:07.118Z,10.77
2023-05-10T18:20:35.163Z,12.13
2023-05-10T18:23:03.738Z,13.60
2023-05-10T18:25:31.598Z,12.88
2023-05-10T18:28:05.096Z,12.75
2023-05-10T18:30:41.402Z,13.68
2023-05-10T18:33:14.835Z,12.13
2023-05-10T18:35:53.102Z,11.35
2023-05-10T18:38:29.296Z,11.50
2023-05-10T18:41:07.093Z,11.70
2023-05-10T18:43:46.195Z,10.57
2023-05-10T18:46:29.019Z,7.57
2023-05-10T18:49:02.786Z,9.60
2023-05-10T18:51:38.375Z,7.55
2023-05-10T18:54:09.441Z,10.55
2023-05-10T18:56:51.390Z,9.02
2023-05-10T18:59:19.892Z,9.20
2023-05-10T19:01:50.859Z,8.00
2023-05-10T19:04:38.039Z,9.68
2023-05-10T19:07:06.646Z,9.13
2023-05-10T19:09:35.046Z,9.88
2023-05-10T19:12:11.964Z,7.30
2023-05-10T19:17:23.448Z,10.85
2023-05-10T19:20:06.539Z,9.13
2023-05-10T19:22:57.954Z,10.15
2023-05-10T19:25:49.967Z,10.67
2023-05-10T19:28:31.549Z,10.77
2023-05-10T19:30:59.408Z,16.42
2023-05-10T19:33:27.432Z,14.25
2023-05-10T19:35:55.891Z,12.43
2023-05-10T19:38:24.591Z,9.88
2023-05-10T19:40:58.709Z,12.27
2023-05-10T19:43:33.411Z,7.85
2023-05-10T19:46:03.735Z,9.52
2023-05-10T19:48:32.477Z,9.10
2023-05-10T19:51:06.352Z,7.53
2023-05-10T19:53:37.786Z,9.45
2023-05-10T19:56:06.961Z,13.40
2023-05-10T19:58:43.054Z,12.45
2023-05-10T20:01:13.379Z,15.68
2023-05-10T20:03:41.226Z,14.43
2023-05-10T20:06:09.156Z,15.35
2023-05-10T20:08:37.253Z,11.93
2023-05-10T20:11:07.800Z,8.77
2023-05-10T20:13:35.932Z,8.80
2023-05-10T20:16:05.344Z,8.52
2023-05-10T20:18:36.652Z,10.20
2023-05-10T20:21:06.544Z,12.93
2023-05-10T20:23:34.719Z,11.27
2023-05-10T20:26:12.751Z,29.85
2023-05-10T20:28:44.440Z,51.10
2023-05-10T20:31:15.846Z,32.05
2023-05-10T20:33:43.840Z,26.40
2023-05-10T20:36:11.821Z,25.73
2023-05-10T20:38:39.927Z,20.67
2023-05-10T20:41:09.002Z,16.92
2023-05-10T20:43:37.077Z,14.05
2023-05-10T20:46:06.062Z,15.65
2023-05-10T20:48:34.563Z,11.82
2023-05-10T20:51:02.942Z,11.20
2023-05-10T20:53:34.644Z,11.18
2023-05-10T20:56:02.701Z,10.50
2023-05-10T20:58:42.880Z,12.55
2023-05-10T21:01:11.871Z,12.40
2023-05-10T21:03:41.351Z,12.35
2023-05-10T21:06:09.528Z,10.43
2023-05-10T21:08:37.520Z,10.52
2023-05-10T21:11:07.046Z,8.55
2023-05-10T21:13:48.887Z,11.35
2023-05-10T21:16:31.655Z,8.80
2023-05-10T21:19:09.660Z,12.45
2023-05-10T21:21:38.776Z,14.15
2023-05-10T21:24:07.369Z,17.10
2023-05-10T21:26:36.189Z,13.27
2023-05-10T21:29:07.909Z,12.45
2023-05-10T21:31:38.557Z,12.43
2023-05-10T21:34:08.605Z,11.48
2023-05-10T21:36:36.983Z,11.15
2023-05-10T21:39:08.240Z,11.48
2023-05-10T21:41:36.508Z,12.00
2023-05-10T21:46:47.598Z,12.55
2023-05-10T21:49:35.415Z,12.90
2023-05-10T21:52:04.198Z,11.70
2023-05-10T21:54:36.339Z,13.45
2023-05-10T21:57:07.154Z,11.77
2023-05-10T21:59:36.094Z,11.20
2023-05-10T22:02:05.258Z,13.05
2023-05-10T22:04:38.107Z,11.82
2023-05-10T22:07:10.838Z,9.07
2023-05-10T22:09:41.543Z,11.48
2023-05-10T22:12:10.024Z,11.23
2023-05-10T22:14:41.476Z,11.77
2023-05-10T22:17:10.640Z,11.27
2023-05-10T22:19:39.982Z,9.60
2023-05-10T22:22:10.014Z,10.18
2023-05-10T22:24:38.036Z,9.63
2023-05-10T22:27:07.686Z,10.27
2023-05-10T22:29:38.121Z,9.52
2023-05-10T22:32:07.005Z,7.35
2023-05-10T22:34:36.315Z,9.18
2023-05-10T22:37:04.659Z,14.68
2023-05-10T22:39:32.391Z,8.60
2023-05-10T22:42:00.466Z,11.90
2023-05-10T22:44:28.759Z,8.27
2023-05-10T22:46:56.880Z,9.20
2023-05-10T22:49:28.069Z,6.47
2023-05-10T22:51:57.650Z,9.38
2023-05-10T22:54:29.426Z,8.63
2023-05-10T22:56:58.625Z,10.00
2023-05-10T22:59:29.810Z,8.93
2023-05-10T23:01:58.206Z,10.27
2023-05-10T23:04:35.819Z,8.95
2023-05-10T23:07:05.400Z,8.38
2023-05-10T23:09:35.772Z,7.45
2023-05-10T23:12:05.139Z,9.35
2023-05-10T23:14:33.317Z,6.70
2023-05-10T23:17:01.304Z,6.00
2023-05-10T23:19:29.552Z,5.30
2023-05-10T23:21:57.627Z,9.77
2023-05-10T23:24:26.656Z,10.07
2023-05-10T23:26:55.030Z,6.93
2023-05-10T23:29:24.334Z,9.10
2023-05-10T23:31:55.612Z,5.28
2023-05-10T23:34:30.155Z,8.32
2023-05-10T23:36:58.346Z,8.35
2023-05-10T23:39:26.602Z,7.10
2023-05-10T23:41:58.233Z,5.95
2023-05-10T23:44:29.416Z,7.07
2023-05-10T23:46:58.143Z,8.77
2023-05-10T23:49:27.742Z,7.70
2023-05-10T23:51:55.902Z,5.97
2023-05-10T23:54:24.261Z,9.30
2023-05-10T23:56:54.453Z,8.23
2023-05-10T23:59:25.351Z,8.50
